Terminal Aerodrome Forecast
Issued by NWS

Home | Current Version | Previous Version | Text Only | Print | Product List | Glossary On
Versions: 1 2 3 4 5 6 7 8 9 10 11 12 13 14 15 16 17 18 19 20 21 22 23 24 25 26 27 28 29 30 31
000
FTUS43 KPAH 010520
TAFOWB
TAF
KOWB 010520Z 0106/0206 00000KT P6SM VCSH SCT050
     FM010700 29003KT P6SM SKC
     FM011300 36005KT P6SM FEW050
     FM020100 00000KT P6SM SCT250=

USA.gov is the U.S. government's official web portal to all federal, state and local government web resources and services.